This is the latest recevied weather packets stored in our database for station/object KJ7BRE-1. If no packets are shown the sender has not sent any weather packets the latest 10 day(s).
| Time | Temp. | Humidity | Pressure | Rain* | Wind** | Luminosity | Snow |
|---|---|---|---|---|---|---|---|
| 1778192190 | 21.67° C | 40% | 1011.5 hPa | 0 mm | - | - | - |
| 1778191889 | 21.67° C | 37% | 1011.5 hPa | 0 mm | - | - | - |
| 1778191588 | 21.67° C | 38% | 1011.9 hPa | 0 mm | - | - | - |
| 1778191287 | 21.11° C | 41% | 1011.9 hPa | 0 mm | - | - | - |
| 1778190985 | 20.56° C | 42% | 1011.9 hPa | 0 mm | - | - | - |
| 1778190684 | 20.56° C | 40% | 1011.9 hPa | 0 mm | - | - | - |
| 1778190383 | 21.11° C | 41% | 1012.2 hPa | 0 mm | - | - | - |
| 1778190082 | 21.11° C | 41% | 1012.2 hPa | 0 mm | - | - | - |
| 1778189781 | 21.67° C | 40% | 1012.2 hPa | 0 mm | - | - | - |
| 1778189479 | 21.11° C | 42% | 1011.9 hPa | 0 mm | - | - | - |
| 1778189178 | 20° C | 43% | 1011.9 hPa | 0 mm | - | - | - |
| 1778188877 | 21.11° C | 41% | 1012.2 hPa | 0 mm | - | - | - |
| 1778188576 | 21.11° C | 42% | 1012.2 hPa | 0 mm | - | - | - |
| 1778188274 | 20° C | 44% | 1012.2 hPa | 0 mm | - | - | - |
| 1778187973 | 20.56° C | 43% | 1012.5 hPa | 0 mm | - | - | - |
| 1778187672 | 21.11° C | 44% | 1012.5 hPa | 0 mm | - | - | - |
| 1778187371 | 20.56° C | 45% | 1012.5 hPa | 0 mm | - | - | - |
| 1778187070 | 20° C | 46% | 1012.9 hPa | 0 mm | - | - | - |
| 1778186769 | 20° C | 46% | 1012.9 hPa | 0 mm | - | - | - |
| 1778186467 | 20° C | 44% | 1012.9 hPa | 0 mm | - | - | - |
| 1778186166 | 20° C | 47% | 1012.9 hPa | 0 mm | - | - | - |
| 1778185865 | 20° C | 46% | 1012.9 hPa | 0 mm | - | - | - |
| 1778185564 | 20° C | 44% | 1012.9 hPa | 0 mm | - | - | - |
| 1778185262 | 19.44° C | 46% | 1013.2 hPa | 0 mm | - | - | - |
| 1778184961 | 20° C | 43% | 1012.9 hPa | 0 mm | - | - | - |
* Rain latest hour (hover to see other rain measurements)
** Current wind speed in m/s (hover to see current wind gust speed)